sensor_id;sensor_type;location;lat;lon;timestamp;P1;durP1;ratioP1;P2;durP2;ratioP2
71166;SDS011;58864;45.928;20.078;2023-04-25T00:00:35;28.03;;;15.80;;
71166;SDS011;58864;45.928;20.078;2023-04-25T00:03:00;33.83;;;18.37;;
71166;SDS011;58864;45.928;20.078;2023-04-25T00:05:24;34.10;;;18.13;;
71166;SDS011;58864;45.928;20.078;2023-04-25T00:07:50;31.05;;;17.38;;
71166;SDS011;58864;45.928;20.078;2023-04-25T00:10:14;29.03;;;16.80;;
71166;SDS011;58864;45.928;20.078;2023-04-25T00:12:39;24.93;;;14.53;;
71166;SDS011;58864;45.928;20.078;2023-04-25T00:15:05;22.97;;;13.57;;
71166;SDS011;58864;45.928;20.078;2023-04-25T00:17:30;23.95;;;12.98;;
71166;SDS011;58864;45.928;20.078;2023-04-25T00:19:55;21.52;;;12.60;;
71166;SDS011;58864;45.928;20.078;2023-04-25T00:22:20;22.63;;;13.57;;
71166;SDS011;58864;45.928;20.078;2023-04-25T00:24:44;23.13;;;14.45;;
71166;SDS011;58864;45.928;20.078;2023-04-25T00:27:09;26.30;;;15.40;;
71166;SDS011;58864;45.928;20.078;2023-04-25T00:29:33;25.20;;;14.50;;
71166;SDS011;58864;45.928;20.078;2023-04-25T00:31:58;23.60;;;14.07;;
71166;SDS011;58864;45.928;20.078;2023-04-25T00:34:22;26.80;;;15.43;;
71166;SDS011;58864;45.928;20.078;2023-04-25T00:36:46;27.73;;;14.70;;
71166;SDS011;58864;45.928;20.078;2023-04-25T00:39:12;26.60;;;15.40;;
71166;SDS011;58864;45.928;20.078;2023-04-25T00:41:36;28.93;;;15.60;;
71166;SDS011;58864;45.928;20.078;2023-04-25T00:44:01;27.23;;;16.75;;
71166;SDS011;58864;45.928;20.078;2023-04-25T00:46:26;31.17;;;16.10;;
71166;SDS011;58864;45.928;20.078;2023-04-25T00:48:51;28.77;;;16.13;;
71166;SDS011;58864;45.928;20.078;2023-04-25T00:51:19;28.87;;;15.90;;
71166;SDS011;58864;45.928;20.078;2023-04-25T00:53:44;27.88;;;15.65;;
71166;SDS011;58864;45.928;20.078;2023-04-25T00:56:09;25.93;;;14.60;;
71166;SDS011;58864;45.928;20.078;2023-04-25T00:58:33;28.93;;;15.70;;
71166;SDS011;58864;45.928;20.078;2023-04-25T01:00:58;28.67;;;16.13;;
71166;SDS011;58864;45.928;20.078;2023-04-25T01:03:24;29.45;;;17.35;;
71166;SDS011;58864;45.928;20.078;2023-04-25T01:05:48;33.90;;;18.60;;
71166;SDS011;58864;45.928;20.078;2023-04-25T01:08:13;30.08;;;16.52;;
71166;SDS011;58864;45.928;20.078;2023-04-25T01:10:38;28.05;;;16.45;;
71166;SDS011;58864;45.928;20.078;2023-04-25T01:13:02;30.07;;;16.97;;
71166;SDS011;58864;45.928;20.078;2023-04-25T01:15:27;32.67;;;19.13;;
71166;SDS011;58864;45.928;20.078;2023-04-25T01:17:52;33.67;;;18.58;;
71166;SDS011;58864;45.928;20.078;2023-04-25T01:20:17;35.27;;;19.80;;
71166;SDS011;58864;45.928;20.078;2023-04-25T01:22:41;37.95;;;20.90;;
71166;SDS011;58864;45.928;20.078;2023-04-25T01:25:07;37.43;;;20.37;;
71166;SDS011;58864;45.928;20.078;2023-04-25T01:27:31;34.30;;;20.13;;
71166;SDS011;58864;45.928;20.078;2023-04-25T01:29:56;41.08;;;21.38;;
71166;SDS011;58864;45.928;20.078;2023-04-25T01:32:21;37.97;;;21.57;;
71166;SDS011;58864;45.928;20.078;2023-04-25T01:34:47;39.28;;;21.63;;
71166;SDS011;58864;45.928;20.078;2023-04-25T01:37:11;35.37;;;19.00;;
71166;SDS011;58864;45.928;20.078;2023-04-25T01:39:36;26.77;;;15.63;;
71166;SDS011;58864;45.928;20.078;2023-04-25T01:42:00;24.55;;;13.82;;
71166;SDS011;58864;45.928;20.078;2023-04-25T01:44:25;23.40;;;11.97;;
71166;SDS011;58864;45.928;20.078;2023-04-25T01:46:50;21.17;;;10.87;;
71166;SDS011;58864;45.928;20.078;2023-04-25T01:49:14;19.03;;;11.50;;
71166;SDS011;58864;45.928;20.078;2023-04-25T01:51:38;23.48;;;12.77;;
71166;SDS011;58864;45.928;20.078;2023-04-25T01:54:03;20.57;;;10.43;;
71166;SDS011;58864;45.928;20.078;2023-04-25T01:56:31;17.97;;;9.67;;
71166;SDS011;58864;45.928;20.078;2023-04-25T01:58:57;18.75;;;10.02;;
71166;SDS011;58864;45.928;20.078;2023-04-25T02:01:21;16.80;;;9.65;;
71166;SDS011;58864;45.928;20.078;2023-04-25T02:03:46;16.87;;;9.67;;
71166;SDS011;58864;45.928;20.078;2023-04-25T02:06:10;18.17;;;9.00;;
71166;SDS011;58864;45.928;20.078;2023-04-25T02:08:35;15.50;;;8.87;;
71166;SDS011;58864;45.928;20.078;2023-04-25T02:11:01;17.55;;;8.50;;
71166;SDS011;58864;45.928;20.078;2023-04-25T02:13:27;15.38;;;8.05;;
71166;SDS011;58864;45.928;20.078;2023-04-25T02:15:51;12.30;;;6.80;;
71166;SDS011;58864;45.928;20.078;2023-04-25T02:18:16;12.90;;;7.45;;
71166;SDS011;58864;45.928;20.078;2023-04-25T02:20:40;12.53;;;7.07;;
71166;SDS011;58864;45.928;20.078;2023-04-25T02:23:04;13.03;;;6.63;;
71166;SDS011;58864;45.928;20.078;2023-04-25T02:25:29;12.83;;;6.70;;
71166;SDS011;58864;45.928;20.078;2023-04-25T02:27:54;13.55;;;7.03;;
71166;SDS011;58864;45.928;20.078;2023-04-25T02:30:18;12.37;;;6.80;;
71166;SDS011;58864;45.928;20.078;2023-04-25T02:32:43;12.90;;;6.75;;
71166;SDS011;58864;45.928;20.078;2023-04-25T02:35:08;12.37;;;6.23;;
71166;SDS011;58864;45.928;20.078;2023-04-25T02:37:33;11.95;;;6.50;;
71166;SDS011;58864;45.928;20.078;2023-04-25T02:39:58;12.30;;;6.57;;
71166;SDS011;58864;45.928;20.078;2023-04-25T02:42:22;12.47;;;6.67;;
71166;SDS011;58864;45.928;20.078;2023-04-25T02:44:47;11.77;;;6.20;;
71166;SDS011;58864;45.928;20.078;2023-04-25T02:47:11;12.30;;;6.97;;
71166;SDS011;58864;45.928;20.078;2023-04-25T02:49:36;11.68;;;6.45;;
71166;SDS011;58864;45.928;20.078;2023-04-25T02:52:00;12.80;;;6.70;;
71166;SDS011;58864;45.928;20.078;2023-04-25T02:54:25;12.37;;;6.47;;
71166;SDS011;58864;45.928;20.078;2023-04-25T02:56:49;11.57;;;6.30;;
71166;SDS011;58864;45.928;20.078;2023-04-25T02:59:14;14.07;;;7.27;;
71166;SDS011;58864;45.928;20.078;2023-04-25T03:01:38;13.40;;;6.37;;
71166;SDS011;58864;45.928;20.078;2023-04-25T03:04:03;12.02;;;6.45;;
71166;SDS011;58864;45.928;20.078;2023-04-25T03:06:27;13.43;;;7.07;;
71166;SDS011;58864;45.928;20.078;2023-04-25T03:08:52;12.83;;;6.90;;
71166;SDS011;58864;45.928;20.078;2023-04-25T03:11:17;13.20;;;6.45;;
71166;SDS011;58864;45.928;20.078;2023-04-25T03:13:41;12.67;;;6.80;;
71166;SDS011;58864;45.928;20.078;2023-04-25T03:16:05;11.63;;;6.57;;
71166;SDS011;58864;45.928;20.078;2023-04-25T03:18:30;13.98;;;6.70;;
71166;SDS011;58864;45.928;20.078;2023-04-25T03:20:54;11.53;;;6.57;;
71166;SDS011;58864;45.928;20.078;2023-04-25T03:23:19;14.83;;;7.03;;
71166;SDS011;58864;45.928;20.078;2023-04-25T03:25:43;13.32;;;6.95;;
71166;SDS011;58864;45.928;20.078;2023-04-25T03:28:08;12.83;;;6.27;;
71166;SDS011;58864;45.928;20.078;2023-04-25T03:30:32;12.37;;;6.50;;
71166;SDS011;58864;45.928;20.078;2023-04-25T03:32:57;12.23;;;6.80;;
71166;SDS011;58864;45.928;20.078;2023-04-25T03:35:21;14.27;;;7.10;;
71166;SDS011;58864;45.928;20.078;2023-04-25T03:37:47;12.07;;;6.35;;
71166;SDS011;58864;45.928;20.078;2023-04-25T03:40:12;10.70;;;5.93;;
71166;SDS011;58864;45.928;20.078;2023-04-25T03:42:36;11.10;;;5.70;;
71166;SDS011;58864;45.928;20.078;2023-04-25T03:45:01;10.15;;;5.25;;
71166;SDS011;58864;45.928;20.078;2023-04-25T03:47:25;9.87;;;5.43;;
71166;SDS011;58864;45.928;20.078;2023-04-25T03:49:50;11.23;;;4.90;;
71166;SDS011;58864;45.928;20.078;2023-04-25T03:52:15;8.35;;;4.45;;
71166;SDS011;58864;45.928;20.078;2023-04-25T03:54:40;10.00;;;4.50;;
71166;SDS011;58864;45.928;20.078;2023-04-25T03:57:04;7.57;;;4.20;;
71166;SDS011;58864;45.928;20.078;2023-04-25T03:59:29;8.97;;;4.60;;
71166;SDS011;58864;45.928;20.078;2023-04-25T04:01:53;7.90;;;4.00;;
71166;SDS011;58864;45.928;20.078;2023-04-25T04:04:18;8.43;;;3.95;;
71166;SDS011;58864;45.928;20.078;2023-04-25T04:06:43;7.93;;;3.93;;
71166;SDS011;58864;45.928;20.078;2023-04-25T04:09:07;10.07;;;4.20;;
71166;SDS011;58864;45.928;20.078;2023-04-25T04:11:34;8.40;;;4.10;;
71166;SDS011;58864;45.928;20.078;2023-04-25T04:14:00;8.43;;;4.03;;
71166;SDS011;58864;45.928;20.078;2023-04-25T04:16:25;9.52;;;4.35;;
71166;SDS011;58864;45.928;20.078;2023-04-25T04:18:49;8.50;;;4.20;;
71166;SDS011;58864;45.928;20.078;2023-04-25T04:21:13;8.80;;;4.80;;
71166;SDS011;58864;45.928;20.078;2023-04-25T04:23:38;10.30;;;4.70;;
71166;SDS011;58864;45.928;20.078;2023-04-25T04:26:03;9.87;;;4.50;;
71166;SDS011;58864;45.928;20.078;2023-04-25T04:28:28;9.32;;;4.60;;
71166;SDS011;58864;45.928;20.078;2023-04-25T04:30:52;9.40;;;4.47;;
71166;SDS011;58864;45.928;20.078;2023-04-25T04:33:16;8.77;;;4.23;;
71166;SDS011;58864;45.928;20.078;2023-04-25T04:35:43;8.40;;;3.90;;
71166;SDS011;58864;45.928;20.078;2023-04-25T04:38:07;9.47;;;4.10;;
71166;SDS011;58864;45.928;20.078;2023-04-25T04:40:32;9.77;;;4.60;;
71166;SDS011;58864;45.928;20.078;2023-04-25T04:42:56;9.02;;;3.90;;
71166;SDS011;58864;45.928;20.078;2023-04-25T04:45:21;7.60;;;4.00;;
71166;SDS011;58864;45.928;20.078;2023-04-25T04:47:46;8.02;;;3.90;;
71166;SDS011;58864;45.928;20.078;2023-04-25T04:50:12;7.70;;;3.72;;
71166;SDS011;58864;45.928;20.078;2023-04-25T04:52:37;9.33;;;4.33;;
71166;SDS011;58864;45.928;20.078;2023-04-25T04:55:03;7.90;;;4.15;;
71166;SDS011;58864;45.928;20.078;2023-04-25T04:57:28;8.38;;;3.72;;
71166;SDS011;58864;45.928;20.078;2023-04-25T04:59:53;9.73;;;4.00;;
71166;SDS011;58864;45.928;20.078;2023-04-25T05:02:17;8.68;;;4.18;;
71166;SDS011;58864;45.928;20.078;2023-04-25T05:04:41;7.10;;;3.43;;
71166;SDS011;58864;45.928;20.078;2023-04-25T05:07:06;8.50;;;3.50;;
71166;SDS011;58864;45.928;20.078;2023-04-25T05:09:30;10.00;;;3.77;;
71166;SDS011;58864;45.928;20.078;2023-04-25T05:11:55;8.10;;;3.90;;
71166;SDS011;58864;45.928;20.078;2023-04-25T05:14:19;12.67;;;5.70;;
71166;SDS011;58864;45.928;20.078;2023-04-25T05:16:43;10.67;;;5.23;;
71166;SDS011;58864;45.928;20.078;2023-04-25T05:19:08;8.05;;;3.80;;
71166;SDS011;58864;45.928;20.078;2023-04-25T05:21:32;7.30;;;3.60;;
71166;SDS011;58864;45.928;20.078;2023-04-25T05:23:58;7.68;;;3.63;;
71166;SDS011;58864;45.928;20.078;2023-04-25T05:26:22;7.33;;;3.30;;
71166;SDS011;58864;45.928;20.078;2023-04-25T05:28:47;8.10;;;3.65;;
71166;SDS011;58864;45.928;20.078;2023-04-25T05:31:12;10.00;;;4.17;;
71166;SDS011;58864;45.928;20.078;2023-04-25T05:33:36;6.70;;;3.37;;
71166;SDS011;58864;45.928;20.078;2023-04-25T05:36:01;12.00;;;3.90;;
71166;SDS011;58864;45.928;20.078;2023-04-25T05:38:25;7.63;;;3.50;;
71166;SDS011;58864;45.928;20.078;2023-04-25T05:40:50;9.53;;;4.07;;
71166;SDS011;58864;45.928;20.078;2023-04-25T05:43:14;8.03;;;3.67;;
71166;SDS011;58864;45.928;20.078;2023-04-25T05:45:39;7.85;;;4.10;;
71166;SDS011;58864;45.928;20.078;2023-04-25T05:48:03;7.83;;;3.50;;
71166;SDS011;58864;45.928;20.078;2023-04-25T05:50:27;7.33;;;3.37;;
71166;SDS011;58864;45.928;20.078;2023-04-25T05:52:52;9.20;;;3.30;;
71166;SDS011;58864;45.928;20.078;2023-04-25T05:55:16;9.40;;;3.38;;
71166;SDS011;58864;45.928;20.078;2023-04-25T05:57:41;6.60;;;3.17;;
71166;SDS011;58864;45.928;20.078;2023-04-25T06:00:07;7.20;;;3.80;;
71166;SDS011;58864;45.928;20.078;2023-04-25T06:02:33;7.47;;;3.80;;
71166;SDS011;58864;45.928;20.078;2023-04-25T06:04:57;8.33;;;3.63;;
71166;SDS011;58864;45.928;20.078;2023-04-25T06:07:22;7.10;;;3.47;;
71166;SDS011;58864;45.928;20.078;2023-04-25T06:09:46;8.85;;;3.67;;
71166;SDS011;58864;45.928;20.078;2023-04-25T06:12:11;7.43;;;3.93;;
71166;SDS011;58864;45.928;20.078;2023-04-25T06:14:35;8.00;;;3.50;;
71166;SDS011;58864;45.928;20.078;2023-04-25T06:17:00;9.80;;;3.60;;
71166;SDS011;58864;45.928;20.078;2023-04-25T06:19:30;8.60;;;3.83;;
71166;SDS011;58864;45.928;20.078;2023-04-25T06:21:54;8.50;;;3.90;;
71166;SDS011;58864;45.928;20.078;2023-04-25T06:24:19;8.83;;;4.30;;
71166;SDS011;58864;45.928;20.078;2023-04-25T06:26:43;7.53;;;3.40;;
71166;SDS011;58864;45.928;20.078;2023-04-25T06:29:08;8.55;;;3.65;;
71166;SDS011;58864;45.928;20.078;2023-04-25T06:31:33;7.75;;;3.80;;
71166;SDS011;58864;45.928;20.078;2023-04-25T06:33:57;7.93;;;3.77;;
71166;SDS011;58864;45.928;20.078;2023-04-25T06:36:22;9.23;;;4.10;;
71166;SDS011;58864;45.928;20.078;2023-04-25T06:38:49;7.73;;;3.47;;
71166;SDS011;58864;45.928;20.078;2023-04-25T06:41:13;10.13;;;3.58;;
71166;SDS011;58864;45.928;20.078;2023-04-25T06:43:37;7.87;;;3.77;;
71166;SDS011;58864;45.928;20.078;2023-04-25T06:46:02;8.20;;;3.60;;
71166;SDS011;58864;45.928;20.078;2023-04-25T06:48:27;7.80;;;3.67;;
71166;SDS011;58864;45.928;20.078;2023-04-25T06:50:51;8.70;;;3.78;;
71166;SDS011;58864;45.928;20.078;2023-04-25T06:53:16;9.70;;;4.20;;
71166;SDS011;58864;45.928;20.078;2023-04-25T06:55:40;7.67;;;3.80;;
71166;SDS011;58864;45.928;20.078;2023-04-25T06:58:05;7.47;;;3.70;;
71166;SDS011;58864;45.928;20.078;2023-04-25T07:00:29;8.57;;;4.30;;
71166;SDS011;58864;45.928;20.078;2023-04-25T07:02:54;7.40;;;3.63;;
71166;SDS011;58864;45.928;20.078;2023-04-25T07:05:18;30.90;;;15.40;;
71166;SDS011;58864;45.928;20.078;2023-04-25T07:07:43;10.57;;;5.20;;
71166;SDS011;58864;45.928;20.078;2023-04-25T07:10:07;11.27;;;5.35;;
71166;SDS011;58864;45.928;20.078;2023-04-25T07:12:32;9.17;;;3.73;;
71166;SDS011;58864;45.928;20.078;2023-04-25T07:14:56;8.57;;;3.83;;
71166;SDS011;58864;45.928;20.078;2023-04-25T07:17:20;9.50;;;4.55;;
71166;SDS011;58864;45.928;20.078;2023-04-25T07:19:45;8.17;;;3.93;;
71166;SDS011;58864;45.928;20.078;2023-04-25T07:22:10;8.53;;;3.23;;
71166;SDS011;58864;45.928;20.078;2023-04-25T07:24:34;8.40;;;3.47;;
71166;SDS011;58864;45.928;20.078;2023-04-25T07:26:58;7.33;;;3.30;;
71166;SDS011;58864;45.928;20.078;2023-04-25T07:29:23;7.37;;;3.63;;
71166;SDS011;58864;45.928;20.078;2023-04-25T07:31:47;9.20;;;3.70;;
71166;SDS011;58864;45.928;20.078;2023-04-25T07:34:12;10.00;;;3.92;;
71166;SDS011;58864;45.928;20.078;2023-04-25T07:36:36;6.53;;;3.10;;
71166;SDS011;58864;45.928;20.078;2023-04-25T07:39:01;6.07;;;3.00;;
71166;SDS011;58864;45.928;20.078;2023-04-25T07:41:25;8.20;;;3.30;;
71166;SDS011;58864;45.928;20.078;2023-04-25T07:43:49;6.75;;;3.13;;
71166;SDS011;58864;45.928;20.078;2023-04-25T07:46:14;7.00;;;3.20;;
71166;SDS011;58864;45.928;20.078;2023-04-25T07:48:39;6.53;;;3.00;;
71166;SDS011;58864;45.928;20.078;2023-04-25T07:51:03;6.70;;;3.00;;
71166;SDS011;58864;45.928;20.078;2023-04-25T07:53:29;7.03;;;2.78;;
71166;SDS011;58864;45.928;20.078;2023-04-25T07:55:53;8.23;;;2.90;;
71166;SDS011;58864;45.928;20.078;2023-04-25T07:58:18;7.17;;;2.90;;
71166;SDS011;58864;45.928;20.078;2023-04-25T08:00:45;6.30;;;2.78;;
71166;SDS011;58864;45.928;20.078;2023-04-25T08:03:10;6.43;;;2.83;;
71166;SDS011;58864;45.928;20.078;2023-04-25T08:05:34;6.38;;;2.63;;
71166;SDS011;58864;45.928;20.078;2023-04-25T08:07:59;6.47;;;2.80;;
71166;SDS011;58864;45.928;20.078;2023-04-25T08:10:23;7.47;;;3.10;;
71166;SDS011;58864;45.928;20.078;2023-04-25T08:12:48;6.95;;;3.10;;
71166;SDS011;58864;45.928;20.078;2023-04-25T08:15:12;8.57;;;3.00;;
71166;SDS011;58864;45.928;20.078;2023-04-25T08:17:37;7.13;;;2.90;;
71166;SDS011;58864;45.928;20.078;2023-04-25T08:20:02;6.10;;;2.93;;
71166;SDS011;58864;45.928;20.078;2023-04-25T08:22:30;5.88;;;2.60;;
71166;SDS011;58864;45.928;20.078;2023-04-25T08:24:54;5.78;;;2.67;;
71166;SDS011;58864;45.928;20.078;2023-04-25T08:27:19;5.87;;;2.53;;
71166;SDS011;58864;45.928;20.078;2023-04-25T08:29:45;7.38;;;2.75;;
71166;SDS011;58864;45.928;20.078;2023-04-25T08:32:09;5.67;;;2.30;;
71166;SDS011;58864;45.928;20.078;2023-04-25T08:34:34;5.93;;;2.60;;
71166;SDS011;58864;45.928;20.078;2023-04-25T08:36:58;7.25;;;2.60;;
71166;SDS011;58864;45.928;20.078;2023-04-25T08:39:23;7.97;;;2.63;;
71166;SDS011;58864;45.928;20.078;2023-04-25T08:41:48;7.35;;;2.85;;
71166;SDS011;58864;45.928;20.078;2023-04-25T08:44:12;6.00;;;2.60;;
71166;SDS011;58864;45.928;20.078;2023-04-25T08:46:38;6.03;;;2.70;;
71166;SDS011;58864;45.928;20.078;2023-04-25T08:49:04;8.57;;;2.63;;
71166;SDS011;58864;45.928;20.078;2023-04-25T08:51:32;5.13;;;2.37;;
71166;SDS011;58864;45.928;20.078;2023-04-25T08:53:58;7.13;;;2.33;;
71166;SDS011;58864;45.928;20.078;2023-04-25T08:56:31;5.72;;;2.30;;
71166;SDS011;58864;45.928;20.078;2023-04-25T08:58:58;6.40;;;2.40;;
71166;SDS011;58864;45.928;20.078;2023-04-25T09:01:24;4.95;;;2.10;;
71166;SDS011;58864;45.928;20.078;2023-04-25T09:03:49;7.05;;;2.10;;
71166;SDS011;58864;45.928;20.078;2023-04-25T09:06:14;5.30;;;2.10;;
71166;SDS011;58864;45.928;20.078;2023-04-25T09:08:40;8.50;;;2.67;;
71166;SDS011;58864;45.928;20.078;2023-04-25T09:11:04;5.83;;;2.53;;
71166;SDS011;58864;45.928;20.078;2023-04-25T09:13:29;5.55;;;2.42;;
71166;SDS011;58864;45.928;20.078;2023-04-25T09:15:54;5.97;;;2.27;;
71166;SDS011;58864;45.928;20.078;2023-04-25T09:18:33;5.72;;;2.25;;
71166;SDS011;58864;45.928;20.078;2023-04-25T09:21:08;5.13;;;2.10;;
71166;SDS011;58864;45.928;20.078;2023-04-25T09:26:13;5.22;;;2.30;;
71166;SDS011;58864;45.928;20.078;2023-04-25T09:28:38;7.30;;;1.92;;
71166;SDS011;58864;45.928;20.078;2023-04-25T09:31:03;7.47;;;2.10;;
71166;SDS011;58864;45.928;20.078;2023-04-25T09:33:31;5.25;;;1.90;;
71166;SDS011;58864;45.928;20.078;2023-04-25T09:36:03;5.67;;;2.10;;
71166;SDS011;58864;45.928;20.078;2023-04-25T09:38:31;10.70;;;2.30;;
71166;SDS011;58864;45.928;20.078;2023-04-25T09:40:56;6.45;;;2.22;;
71166;SDS011;58864;45.928;20.078;2023-04-25T09:43:24;6.80;;;2.30;;
71166;SDS011;58864;45.928;20.078;2023-04-25T09:45:49;5.55;;;2.60;;
71166;SDS011;58864;45.928;20.078;2023-04-25T09:48:19;6.40;;;2.88;;
71166;SDS011;58864;45.928;20.078;2023-04-25T09:50:44;7.57;;;2.75;;
71166;SDS011;58864;45.928;20.078;2023-04-25T09:53:09;8.13;;;2.50;;
71166;SDS011;58864;45.928;20.078;2023-04-25T09:55:34;6.40;;;2.30;;
71166;SDS011;58864;45.928;20.078;2023-04-25T09:58:00;6.03;;;2.40;;
71166;SDS011;58864;45.928;20.078;2023-04-25T10:00:29;7.10;;;2.45;;
71166;SDS011;58864;45.928;20.078;2023-04-25T10:02:54;6.23;;;2.60;;
71166;SDS011;58864;45.928;20.078;2023-04-25T10:05:20;7.10;;;2.40;;
71166;SDS011;58864;45.928;20.078;2023-04-25T10:07:45;5.38;;;2.30;;
71166;SDS011;58864;45.928;20.078;2023-04-25T10:10:10;5.88;;;2.30;;
71166;SDS011;58864;45.928;20.078;2023-04-25T10:12:37;8.40;;;2.37;;
71166;SDS011;58864;45.928;20.078;2023-04-25T10:15:03;7.65;;;2.75;;
71166;SDS011;58864;45.928;20.078;2023-04-25T10:17:28;6.97;;;2.72;;
71166;SDS011;58864;45.928;20.078;2023-04-25T10:19:53;6.23;;;3.20;;
71166;SDS011;58864;45.928;20.078;2023-04-25T10:22:20;7.53;;;2.88;;
71166;SDS011;58864;45.928;20.078;2023-04-25T10:24:50;6.03;;;2.65;;
71166;SDS011;58864;45.928;20.078;2023-04-25T10:27:15;7.37;;;2.77;;
71166;SDS011;58864;45.928;20.078;2023-04-25T10:29:39;7.63;;;2.50;;
71166;SDS011;58864;45.928;20.078;2023-04-25T10:32:07;9.13;;;2.42;;
71166;SDS011;58864;45.928;20.078;2023-04-25T10:34:38;5.87;;;2.23;;
71166;SDS011;58864;45.928;20.078;2023-04-25T10:37:10;5.53;;;2.47;;
71166;SDS011;58864;45.928;20.078;2023-04-25T10:39:35;5.20;;;2.00;;
71166;SDS011;58864;45.928;20.078;2023-04-25T10:41:59;8.00;;;3.07;;
71166;SDS011;58864;45.928;20.078;2023-04-25T10:44:26;8.68;;;2.30;;
71166;SDS011;58864;45.928;20.078;2023-04-25T10:46:55;7.50;;;2.63;;
71166;SDS011;58864;45.928;20.078;2023-04-25T10:49:30;6.90;;;2.60;;
71166;SDS011;58864;45.928;20.078;2023-04-25T10:54:53;7.50;;;2.40;;
71166;SDS011;58864;45.928;20.078;2023-04-25T10:57:36;6.70;;;2.50;;
71166;SDS011;58864;45.928;20.078;2023-04-25T11:00:05;8.95;;;2.33;;
71166;SDS011;58864;45.928;20.078;2023-04-25T11:02:30;8.33;;;2.20;;
71166;SDS011;58864;45.928;20.078;2023-04-25T11:04:55;7.13;;;2.60;;
71166;SDS011;58864;45.928;20.078;2023-04-25T11:07:23;7.83;;;2.17;;
71166;SDS011;58864;45.928;20.078;2023-04-25T11:09:53;5.68;;;2.45;;
71166;SDS011;58864;45.928;20.078;2023-04-25T11:12:18;6.63;;;2.20;;
71166;SDS011;58864;45.928;20.078;2023-04-25T11:14:43;6.13;;;2.30;;
71166;SDS011;58864;45.928;20.078;2023-04-25T11:17:07;7.13;;;2.50;;
71166;SDS011;58864;45.928;20.078;2023-04-25T11:19:31;7.53;;;2.40;;
71166;SDS011;58864;45.928;20.078;2023-04-25T11:21:56;8.17;;;2.70;;
71166;SDS011;58864;45.928;20.078;2023-04-25T11:26:58;6.00;;;2.20;;
71166;SDS011;58864;45.928;20.078;2023-04-25T11:29:23;6.40;;;2.20;;
71166;SDS011;58864;45.928;20.078;2023-04-25T11:31:50;6.10;;;1.60;;
71166;SDS011;58864;45.928;20.078;2023-04-25T11:34:19;6.50;;;2.10;;
71166;SDS011;58864;45.928;20.078;2023-04-25T11:36:44;7.25;;;2.20;;
71166;SDS011;58864;45.928;20.078;2023-04-25T11:39:09;6.40;;;2.33;;
71166;SDS011;58864;45.928;20.078;2023-04-25T11:41:34;7.72;;;2.35;;
71166;SDS011;58864;45.928;20.078;2023-04-25T11:43:58;7.40;;;1.87;;
71166;SDS011;58864;45.928;20.078;2023-04-25T11:46:22;7.83;;;2.80;;
71166;SDS011;58864;45.928;20.078;2023-04-25T11:48:47;6.80;;;2.40;;
71166;SDS011;58864;45.928;20.078;2023-04-25T11:51:11;5.32;;;2.35;;
71166;SDS011;58864;45.928;20.078;2023-04-25T11:53:36;7.30;;;2.60;;
71166;SDS011;58864;45.928;20.078;2023-04-25T11:56:01;6.70;;;2.30;;
71166;SDS011;58864;45.928;20.078;2023-04-25T11:58:26;6.07;;;2.55;;
71166;SDS011;58864;45.928;20.078;2023-04-25T12:00:51;9.57;;;3.40;;
71166;SDS011;58864;45.928;20.078;2023-04-25T12:03:15;9.00;;;3.10;;
71166;SDS011;58864;45.928;20.078;2023-04-25T12:05:39;7.30;;;2.40;;
71166;SDS011;58864;45.928;20.078;2023-04-25T12:08:15;8.90;;;2.60;;
71166;SDS011;58864;45.928;20.078;2023-04-25T12:10:40;19.23;;;4.38;;
71166;SDS011;58864;45.928;20.078;2023-04-25T12:13:19;6.45;;;2.60;;
71166;SDS011;58864;45.928;20.078;2023-04-25T12:15:45;6.20;;;2.70;;
71166;SDS011;58864;45.928;20.078;2023-04-25T12:18:09;6.22;;;2.75;;
71166;SDS011;58864;45.928;20.078;2023-04-25T12:20:34;7.05;;;2.78;;
71166;SDS011;58864;45.928;20.078;2023-04-25T12:22:59;6.73;;;2.73;;
71166;SDS011;58864;45.928;20.078;2023-04-25T12:28:19;8.02;;;2.85;;
71166;SDS011;58864;45.928;20.078;2023-04-25T12:33:29;7.22;;;2.67;;
71166;SDS011;58864;45.928;20.078;2023-04-25T12:35:54;5.85;;;2.33;;
71166;SDS011;58864;45.928;20.078;2023-04-25T12:38:20;5.40;;;2.17;;
71166;SDS011;58864;45.928;20.078;2023-04-25T12:40:54;4.70;;;2.00;;
71166;SDS011;58864;45.928;20.078;2023-04-25T12:43:19;8.27;;;1.77;;
71166;SDS011;58864;45.928;20.078;2023-04-25T12:45:44;4.97;;;1.92;;
71166;SDS011;58864;45.928;20.078;2023-04-25T12:48:11;4.63;;;2.10;;
71166;SDS011;58864;45.928;20.078;2023-04-25T12:50:35;4.55;;;1.70;;
71166;SDS011;58864;45.928;20.078;2023-04-25T12:53:00;7.90;;;2.60;;
71166;SDS011;58864;45.928;20.078;2023-04-25T12:55:24;6.13;;;2.70;;
71166;SDS011;58864;45.928;20.078;2023-04-25T12:57:49;7.13;;;3.00;;
71166;SDS011;58864;45.928;20.078;2023-04-25T13:00:13;8.73;;;2.90;;
71166;SDS011;58864;45.928;20.078;2023-04-25T13:02:38;7.20;;;2.92;;
71166;SDS011;58864;45.928;20.078;2023-04-25T13:05:03;6.37;;;2.67;;
71166;SDS011;58864;45.928;20.078;2023-04-25T13:07:28;5.40;;;2.55;;
71166;SDS011;58864;45.928;20.078;2023-04-25T13:09:52;5.80;;;2.70;;
71166;SDS011;58864;45.928;20.078;2023-04-25T13:12:17;5.70;;;2.67;;
71166;SDS011;58864;45.928;20.078;2023-04-25T13:14:41;8.48;;;3.13;;
71166;SDS011;58864;45.928;20.078;2023-04-25T13:17:06;5.97;;;2.67;;
71166;SDS011;58864;45.928;20.078;2023-04-25T13:19:30;11.23;;;4.50;;
71166;SDS011;58864;45.928;20.078;2023-04-25T13:21:56;7.35;;;3.50;;
71166;SDS011;58864;45.928;20.078;2023-04-25T13:24:20;6.87;;;3.33;;
71166;SDS011;58864;45.928;20.078;2023-04-25T13:26:45;6.90;;;2.83;;
71166;SDS011;58864;45.928;20.078;2023-04-25T13:29:09;6.40;;;2.85;;
71166;SDS011;58864;45.928;20.078;2023-04-25T13:31:34;5.37;;;2.70;;
71166;SDS011;58864;45.928;20.078;2023-04-25T13:33:59;6.85;;;2.70;;
71166;SDS011;58864;45.928;20.078;2023-04-25T13:36:23;5.80;;;2.50;;
71166;SDS011;58864;45.928;20.078;2023-04-25T13:38:48;5.80;;;2.55;;
71166;SDS011;58864;45.928;20.078;2023-04-25T13:41:13;5.10;;;2.20;;
71166;SDS011;58864;45.928;20.078;2023-04-25T13:43:41;6.18;;;2.67;;
71166;SDS011;58864;45.928;20.078;2023-04-25T13:46:06;6.10;;;3.00;;
71166;SDS011;58864;45.928;20.078;2023-04-25T13:48:30;5.33;;;2.53;;
71166;SDS011;58864;45.928;20.078;2023-04-25T13:50:55;8.03;;;2.93;;
71166;SDS011;58864;45.928;20.078;2023-04-25T13:53:19;5.10;;;2.30;;
71166;SDS011;58864;45.928;20.078;2023-04-25T13:55:45;6.60;;;2.65;;
71166;SDS011;58864;45.928;20.078;2023-04-25T13:58:10;7.03;;;3.08;;
71166;SDS011;58864;45.928;20.078;2023-04-25T14:00:35;6.40;;;2.80;;
71166;SDS011;58864;45.928;20.078;2023-04-25T14:03:03;13.05;;;2.85;;
71166;SDS011;58864;45.928;20.078;2023-04-25T14:05:30;6.90;;;2.40;;
71166;SDS011;58864;45.928;20.078;2023-04-25T14:07:55;5.40;;;2.53;;
71166;SDS011;58864;45.928;20.078;2023-04-25T14:10:20;4.60;;;2.00;;
71166;SDS011;58864;45.928;20.078;2023-04-25T14:12:44;5.63;;;2.20;;
71166;SDS011;58864;45.928;20.078;2023-04-25T14:15:09;6.43;;;2.33;;
71166;SDS011;58864;45.928;20.078;2023-04-25T14:17:34;4.90;;;2.05;;
71166;SDS011;58864;45.928;20.078;2023-04-25T14:19:59;6.67;;;2.20;;
71166;SDS011;58864;45.928;20.078;2023-04-25T14:22:23;6.15;;;2.40;;
71166;SDS011;58864;45.928;20.078;2023-04-25T14:24:48;6.72;;;2.80;;
71166;SDS011;58864;45.928;20.078;2023-04-25T14:27:13;6.00;;;2.30;;
71166;SDS011;58864;45.928;20.078;2023-04-25T14:29:37;6.30;;;2.50;;